sensor_id;sensor_type;location;lat;lon;timestamp;pressure;altitude;pressure_sealevel;temperature;humidity
78064;BME280;67429;51.596;-3.264;2023-11-22T00:02:17;101039.70;;;8.76;55.72
78064;BME280;67429;51.596;-3.264;2023-11-22T00:04:42;101041.26;;;6.81;59.24
78064;BME280;67429;51.596;-3.264;2023-11-22T00:07:08;101042.92;;;7.08;59.73
78064;BME280;67429;51.596;-3.264;2023-11-22T00:09:34;101040.65;;;7.10;59.45
78064;BME280;67429;51.596;-3.264;2023-11-22T00:11:59;101036.08;;;7.29;60.12
78064;BME280;67429;51.596;-3.264;2023-11-22T00:14:25;101028.26;;;7.83;58.42
78064;BME280;67429;51.596;-3.264;2023-11-22T00:16:51;101021.98;;;8.08;57.21
78064;BME280;67429;51.596;-3.264;2023-11-22T00:19:17;101024.15;;;8.42;56.57
78064;BME280;67429;51.596;-3.264;2023-11-22T00:21:42;101022.46;;;8.64;55.16
78064;BME280;67429;51.596;-3.264;2023-11-22T00:24:08;101016.54;;;8.51;54.98
78064;BME280;67429;51.596;-3.264;2023-11-22T00:26:34;101021.08;;;8.88;54.72
78064;BME280;67429;51.596;-3.264;2023-11-22T00:28:59;101017.76;;;8.85;54.88
78064;BME280;67429;51.596;-3.264;2023-11-22T00:31:25;101020.62;;;7.96;56.92
78064;BME280;67429;51.596;-3.264;2023-11-22T00:33:51;101028.14;;;8.10;56.32
78064;BME280;67429;51.596;-3.264;2023-11-22T00:36:17;101028.67;;;9.38;53.95
78064;BME280;67429;51.596;-3.264;2023-11-22T00:38:42;101022.50;;;8.79;55.19
78064;BME280;67429;51.596;-3.264;2023-11-22T00:41:09;101021.53;;;9.16;53.78
78064;BME280;67429;51.596;-3.264;2023-11-22T00:43:34;101017.52;;;9.18;52.84
78064;BME280;67429;51.596;-3.264;2023-11-22T00:45:59;101010.45;;;8.34;56.22
78064;BME280;67429;51.596;-3.264;2023-11-22T00:48:25;100998.64;;;8.66;55.79
78064;BME280;67429;51.596;-3.264;2023-11-22T00:50:51;100993.14;;;8.77;54.78
78064;BME280;67429;51.596;-3.264;2023-11-22T00:53:16;100994.26;;;9.83;52.71
78064;BME280;67429;51.596;-3.264;2023-11-22T00:55:42;100988.38;;;10.44;51.71
78064;BME280;67429;51.596;-3.264;2023-11-22T00:58:08;100990.79;;;10.79;50.62
78064;BME280;67429;51.596;-3.264;2023-11-22T01:00:33;100994.59;;;11.39;49.42
78064;BME280;67429;51.596;-3.264;2023-11-22T01:02:59;100997.17;;;11.36;49.23
78064;BME280;67429;51.596;-3.264;2023-11-22T01:05:25;101005.78;;;10.94;49.91
78064;BME280;67429;51.596;-3.264;2023-11-22T01:07:51;101015.37;;;11.14;49.88
78064;BME280;67429;51.596;-3.264;2023-11-22T01:10:16;101015.76;;;11.11;49.69
78064;BME280;67429;51.596;-3.264;2023-11-22T01:12:42;101006.95;;;11.37;49.10
78064;BME280;67429;51.596;-3.264;2023-11-22T01:15:09;101001.43;;;11.23;48.88
78064;BME280;67429;51.596;-3.264;2023-11-22T01:17:33;101001.03;;;9.38;51.74
78064;BME280;67429;51.596;-3.264;2023-11-22T01:19:59;101000.93;;;9.22;53.47
78064;BME280;67429;51.596;-3.264;2023-11-22T01:22:25;101002.83;;;10.49;51.14
78064;BME280;67429;51.596;-3.264;2023-11-22T01:24:51;101002.10;;;10.26;50.55
78064;BME280;67429;51.596;-3.264;2023-11-22T01:27:16;100999.98;;;10.34;50.93
78064;BME280;67429;51.596;-3.264;2023-11-22T01:29:42;101000.44;;;11.08;50.01
78064;BME280;67429;51.596;-3.264;2023-11-22T01:32:08;101000.68;;;11.10;49.36
78064;BME280;67429;51.596;-3.264;2023-11-22T01:34:33;100994.24;;;11.90;48.62
78064;BME280;67429;51.596;-3.264;2023-11-22T01:36:59;100993.59;;;11.15;48.38
78064;BME280;67429;51.596;-3.264;2023-11-22T01:39:25;100996.30;;;11.66;48.51
78064;BME280;67429;51.596;-3.264;2023-11-22T01:41:50;100991.29;;;11.03;49.27
78064;BME280;67429;51.596;-3.264;2023-11-22T01:44:16;101002.46;;;9.30;52.06
78064;BME280;67429;51.596;-3.264;2023-11-22T01:46:42;101006.54;;;10.16;51.46
78064;BME280;67429;51.596;-3.264;2023-11-22T01:49:09;101013.54;;;10.28;51.06
78064;BME280;67429;51.596;-3.264;2023-11-22T01:51:33;101018.77;;;11.18;49.08
78064;BME280;67429;51.596;-3.264;2023-11-22T01:53:59;101028.04;;;11.22;49.57
78064;BME280;67429;51.596;-3.264;2023-11-22T01:56:26;101017.55;;;10.91;49.65
78064;BME280;67429;51.596;-3.264;2023-11-22T01:58:50;101012.33;;;11.62;48.50
78064;BME280;67429;51.596;-3.264;2023-11-22T02:01:16;101011.81;;;11.56;48.33
78064;BME280;67429;51.596;-3.264;2023-11-22T02:03:41;101010.99;;;11.54;48.49
78064;BME280;67429;51.596;-3.264;2023-11-22T02:06:08;101006.00;;;11.32;49.02
78064;BME280;67429;51.596;-3.264;2023-11-22T02:08:33;101004.93;;;11.66;49.12
78064;BME280;67429;51.596;-3.264;2023-11-22T02:10:59;101009.69;;;11.60;48.28
78064;BME280;67429;51.596;-3.264;2023-11-22T02:13:24;101011.07;;;10.08;49.88
78064;BME280;67429;51.596;-3.264;2023-11-22T02:15:50;101010.17;;;9.03;52.42
78064;BME280;67429;51.596;-3.264;2023-11-22T02:18:16;101007.88;;;9.24;52.48
78064;BME280;67429;51.596;-3.264;2023-11-22T02:20:42;101009.37;;;9.70;51.72
78064;BME280;67429;51.596;-3.264;2023-11-22T02:23:08;101004.94;;;9.17;52.48
78064;BME280;67429;51.596;-3.264;2023-11-22T02:25:33;101011.82;;;8.47;53.18
78064;BME280;67429;51.596;-3.264;2023-11-22T02:27:58;101004.77;;;8.75;54.54
78064;BME280;67429;51.596;-3.264;2023-11-22T02:30:24;101003.63;;;9.07;52.82
78064;BME280;67429;51.596;-3.264;2023-11-22T02:32:50;101006.54;;;9.08;53.14
78064;BME280;67429;51.596;-3.264;2023-11-22T02:35:15;101003.13;;;9.03;52.73
78064;BME280;67429;51.596;-3.264;2023-11-22T02:37:41;101003.43;;;8.91;53.32
78064;BME280;67429;51.596;-3.264;2023-11-22T02:40:14;101001.96;;;9.49;51.82
78064;BME280;67429;51.596;-3.264;2023-11-22T02:42:33;100998.82;;;9.54;50.73
78064;BME280;67429;51.596;-3.264;2023-11-22T02:44:57;100995.54;;;10.87;49.60
78064;BME280;67429;51.596;-3.264;2023-11-22T02:47:23;100987.52;;;10.99;48.68
78064;BME280;67429;51.596;-3.264;2023-11-22T02:49:49;100983.08;;;11.35;47.38
78064;BME280;67429;51.596;-3.264;2023-11-22T02:52:14;100979.52;;;11.72;46.66
78064;BME280;67429;51.596;-3.264;2023-11-22T02:54:42;100977.18;;;12.29;47.14
78064;BME280;67429;51.596;-3.264;2023-11-22T02:57:05;100976.28;;;12.58;46.89
78064;BME280;67429;51.596;-3.264;2023-11-22T02:59:31;100973.90;;;12.98;46.19
78064;BME280;67429;51.596;-3.264;2023-11-22T03:01:57;100975.19;;;12.64;46.60
78064;BME280;67429;51.596;-3.264;2023-11-22T03:04:23;100974.86;;;12.70;46.62
78064;BME280;67429;51.596;-3.264;2023-11-22T03:06:48;100975.44;;;11.49;48.06
78064;BME280;67429;51.596;-3.264;2023-11-22T03:09:14;100976.48;;;11.21;48.69
78064;BME280;67429;51.596;-3.264;2023-11-22T03:11:40;100978.96;;;11.72;47.67
78064;BME280;67429;51.596;-3.264;2023-11-22T03:14:05;100973.35;;;11.27;48.38
78064;BME280;67429;51.596;-3.264;2023-11-22T03:16:31;100969.61;;;11.99;47.43
78064;BME280;67429;51.596;-3.264;2023-11-22T03:18:57;100969.42;;;11.97;47.68
78064;BME280;67429;51.596;-3.264;2023-11-22T03:21:23;100977.26;;;12.38;47.47
78064;BME280;67429;51.596;-3.264;2023-11-22T03:23:48;100984.20;;;11.88;48.23
78064;BME280;67429;51.596;-3.264;2023-11-22T03:26:14;100974.00;;;11.22;49.99
78064;BME280;67429;51.596;-3.264;2023-11-22T03:28:40;100977.24;;;11.99;49.09
78064;BME280;67429;51.596;-3.264;2023-11-22T03:31:06;100985.33;;;12.01;48.75
78064;BME280;67429;51.596;-3.264;2023-11-22T03:33:31;100987.08;;;12.37;48.10
78064;BME280;67429;51.596;-3.264;2023-11-22T03:35:57;100979.82;;;12.39;47.77
78064;BME280;67429;51.596;-3.264;2023-11-22T03:38:22;100985.60;;;12.00;48.09
78064;BME280;67429;51.596;-3.264;2023-11-22T03:40:48;100988.95;;;11.89;48.36
78064;BME280;67429;51.596;-3.264;2023-11-22T03:43:14;100981.01;;;12.23;47.80
78064;BME280;67429;51.596;-3.264;2023-11-22T03:45:39;100977.97;;;12.27;48.02
78064;BME280;67429;51.596;-3.264;2023-11-22T03:48:05;100978.66;;;11.98;48.35
78064;BME280;67429;51.596;-3.264;2023-11-22T03:50:31;100975.12;;;11.96;47.77
78064;BME280;67429;51.596;-3.264;2023-11-22T03:52:57;100976.79;;;11.83;48.36
78064;BME280;67429;51.596;-3.264;2023-11-22T03:55:22;100974.14;;;11.81;48.52
78064;BME280;67429;51.596;-3.264;2023-11-22T03:57:48;100970.49;;;11.74;48.57
78064;BME280;67429;51.596;-3.264;2023-11-22T04:00:14;100974.22;;;9.35;52.15
78064;BME280;67429;51.596;-3.264;2023-11-22T04:02:40;100969.78;;;7.95;55.80
78064;BME280;67429;51.596;-3.264;2023-11-22T04:05:05;100969.73;;;7.35;58.37
78064;BME280;67429;51.596;-3.264;2023-11-22T04:07:30;100955.63;;;8.29;56.93
78064;BME280;67429;51.596;-3.264;2023-11-22T04:09:56;100962.89;;;8.55;55.29
78064;BME280;67429;51.596;-3.264;2023-11-22T04:12:22;100961.68;;;7.73;57.65
78064;BME280;67429;51.596;-3.264;2023-11-22T04:14:48;100952.87;;;9.86;53.61
78064;BME280;67429;51.596;-3.264;2023-11-22T04:17:13;100952.52;;;8.95;53.45
78064;BME280;67429;51.596;-3.264;2023-11-22T04:19:39;100956.56;;;9.58;52.66
78064;BME280;67429;51.596;-3.264;2023-11-22T04:22:05;100956.88;;;10.76;50.55
78064;BME280;67429;51.596;-3.264;2023-11-22T04:24:30;100957.91;;;10.06;51.52
78064;BME280;67429;51.596;-3.264;2023-11-22T04:26:56;100963.20;;;10.45;50.72
78064;BME280;67429;51.596;-3.264;2023-11-22T04:29:22;100957.48;;;10.67;49.78
78064;BME280;67429;51.596;-3.264;2023-11-22T04:31:47;100960.63;;;11.36;49.23
78064;BME280;67429;51.596;-3.264;2023-11-22T04:34:13;100955.81;;;11.99;48.02
78064;BME280;67429;51.596;-3.264;2023-11-22T04:36:39;100953.42;;;12.06;47.28
78064;BME280;67429;51.596;-3.264;2023-11-22T04:39:04;100948.19;;;11.93;48.18
78064;BME280;67429;51.596;-3.264;2023-11-22T04:41:30;100954.34;;;10.95;50.19
78064;BME280;67429;51.596;-3.264;2023-11-22T04:43:56;100955.95;;;9.83;52.67
78064;BME280;67429;51.596;-3.264;2023-11-22T04:46:22;100945.10;;;10.99;51.58
78064;BME280;67429;51.596;-3.264;2023-11-22T04:48:47;100951.42;;;10.91;50.69
78064;BME280;67429;51.596;-3.264;2023-11-22T04:51:14;100957.87;;;10.98;51.04
78064;BME280;67429;51.596;-3.264;2023-11-22T04:53:39;100959.85;;;10.96;50.86
78064;BME280;67429;51.596;-3.264;2023-11-22T04:56:05;100953.66;;;10.23;52.12
78064;BME280;67429;51.596;-3.264;2023-11-22T04:58:30;100951.08;;;9.94;52.05
78064;BME280;67429;51.596;-3.264;2023-11-22T05:00:57;100953.42;;;11.56;50.45
78064;BME280;67429;51.596;-3.264;2023-11-22T05:03:21;100953.64;;;11.78;50.12
78064;BME280;67429;51.596;-3.264;2023-11-22T05:05:47;100952.72;;;11.34;49.87
78064;BME280;67429;51.596;-3.264;2023-11-22T05:08:13;100948.42;;;10.57;51.89
78064;BME280;67429;51.596;-3.264;2023-11-22T05:10:38;100943.29;;;10.77;51.31
78064;BME280;67429;51.596;-3.264;2023-11-22T05:13:04;100943.47;;;11.24;50.71
78064;BME280;67429;51.596;-3.264;2023-11-22T05:15:30;100933.59;;;10.38;53.27
78064;BME280;67429;51.596;-3.264;2023-11-22T05:17:55;100930.27;;;8.87;56.27
78064;BME280;67429;51.596;-3.264;2023-11-22T05:20:21;100926.75;;;8.65;57.48
78064;BME280;67429;51.596;-3.264;2023-11-22T05:22:47;100930.56;;;8.28;58.70
78064;BME280;67429;51.596;-3.264;2023-11-22T05:25:12;100931.91;;;8.85;57.92
78064;BME280;67429;51.596;-3.264;2023-11-22T05:27:38;100928.95;;;9.41;56.69
78064;BME280;67429;51.596;-3.264;2023-11-22T05:30:05;100931.31;;;10.62;54.05
78064;BME280;67429;51.596;-3.264;2023-11-22T05:32:29;100931.03;;;10.17;54.63
78064;BME280;67429;51.596;-3.264;2023-11-22T05:34:55;100935.06;;;9.60;56.43
78064;BME280;67429;51.596;-3.264;2023-11-22T05:37:21;100931.74;;;8.24;60.10
78064;BME280;67429;51.596;-3.264;2023-11-22T05:39:46;100923.30;;;8.20;61.15
78064;BME280;67429;51.596;-3.264;2023-11-22T05:42:12;100917.96;;;8.39;61.37
78064;BME280;67429;51.596;-3.264;2023-11-22T05:44:38;100916.84;;;8.07;61.44
78064;BME280;67429;51.596;-3.264;2023-11-22T05:47:04;100916.00;;;8.00;62.08
78064;BME280;67429;51.596;-3.264;2023-11-22T05:49:29;100914.85;;;8.22;60.46
78064;BME280;67429;51.596;-3.264;2023-11-22T05:51:55;100910.54;;;9.81;56.95
78064;BME280;67429;51.596;-3.264;2023-11-22T05:54:21;100908.64;;;11.21;54.11
78064;BME280;67429;51.596;-3.264;2023-11-22T05:56:47;100900.20;;;11.45;52.42
78064;BME280;67429;51.596;-3.264;2023-11-22T05:59:12;100898.80;;;12.08;51.43
78064;BME280;67429;51.596;-3.264;2023-11-22T06:01:37;100900.14;;;12.09;50.73
78064;BME280;67429;51.596;-3.264;2023-11-22T06:04:04;100910.86;;;12.22;50.78
78064;BME280;67429;51.596;-3.264;2023-11-22T06:06:29;100910.06;;;12.40;49.52
78064;BME280;67429;51.596;-3.264;2023-11-22T06:08:54;100904.08;;;12.12;50.57
78064;BME280;67429;51.596;-3.264;2023-11-22T06:11:21;100898.40;;;11.94;50.16
78064;BME280;67429;51.596;-3.264;2023-11-22T06:13:46;100905.52;;;12.90;49.19
78064;BME280;67429;51.596;-3.264;2023-11-22T06:16:12;100900.88;;;12.76;48.63
78064;BME280;67429;51.596;-3.264;2023-11-22T06:18:37;100915.50;;;12.08;50.14
78064;BME280;67429;51.596;-3.264;2023-11-22T06:21:03;100924.57;;;11.94;50.38
78064;BME280;67429;51.596;-3.264;2023-11-22T06:23:28;100929.53;;;10.48;53.39
78064;BME280;67429;51.596;-3.264;2023-11-22T06:25:54;100935.00;;;11.40;52.57
78064;BME280;67429;51.596;-3.264;2023-11-22T06:28:20;100950.59;;;11.51;51.22
78064;BME280;67429;51.596;-3.264;2023-11-22T06:30:46;100960.00;;;12.55;50.23
78064;BME280;67429;51.596;-3.264;2023-11-22T06:33:11;100962.63;;;12.89;49.60
78064;BME280;67429;51.596;-3.264;2023-11-22T06:35:37;100972.43;;;12.16;50.33
78064;BME280;67429;51.596;-3.264;2023-11-22T06:38:03;100967.47;;;12.69;49.28
78064;BME280;67429;51.596;-3.264;2023-11-22T06:40:28;100960.69;;;13.17;48.59
78064;BME280;67429;51.596;-3.264;2023-11-22T06:42:54;100964.92;;;13.36;48.20
78064;BME280;67429;51.596;-3.264;2023-11-22T06:45:20;100963.71;;;12.84;48.35
78064;BME280;67429;51.596;-3.264;2023-11-22T06:47:45;100956.86;;;13.47;47.87
78064;BME280;67429;51.596;-3.264;2023-11-22T06:50:11;100955.22;;;12.74;48.65
78064;BME280;67429;51.596;-3.264;2023-11-22T06:52:36;100950.94;;;13.38;47.91
78064;BME280;67429;51.596;-3.264;2023-11-22T06:55:03;100966.90;;;12.84;48.75
78064;BME280;67429;51.596;-3.264;2023-11-22T06:57:28;100964.01;;;12.38;49.22
78064;BME280;67429;51.596;-3.264;2023-11-22T06:59:53;100955.90;;;13.19;48.58
78064;BME280;67429;51.596;-3.264;2023-11-22T07:02:19;100974.45;;;12.99;48.52
78064;BME280;67429;51.596;-3.264;2023-11-22T07:04:45;100978.98;;;12.72;49.30
78064;BME280;67429;51.596;-3.264;2023-11-22T07:07:10;100982.54;;;13.01;48.47
78064;BME280;67429;51.596;-3.264;2023-11-22T07:09:36;100975.33;;;13.53;48.00
78064;BME280;67429;51.596;-3.264;2023-11-22T07:12:02;100978.48;;;13.50;47.58
78064;BME280;67429;51.596;-3.264;2023-11-22T07:14:27;100977.25;;;13.48;47.38
78064;BME280;67429;51.596;-3.264;2023-11-22T07:16:53;100973.46;;;13.53;47.65
78064;BME280;67429;51.596;-3.264;2023-11-22T07:19:19;100973.77;;;11.87;49.80
78064;BME280;67429;51.596;-3.264;2023-11-22T07:21:44;100981.52;;;11.36;51.58
78064;BME280;67429;51.596;-3.264;2023-11-22T07:24:10;100981.40;;;11.17;51.47
78064;BME280;67429;51.596;-3.264;2023-11-22T07:26:36;100970.10;;;12.87;49.68
78064;BME280;67429;51.596;-3.264;2023-11-22T07:29:02;100974.90;;;12.87;50.15
78064;BME280;67429;51.596;-3.264;2023-11-22T07:31:27;100977.18;;;12.32;50.05
78064;BME280;67429;51.596;-3.264;2023-11-22T07:33:53;100973.56;;;11.66;51.27
78064;BME280;67429;51.596;-3.264;2023-11-22T07:36:18;100973.47;;;11.70;51.53
78064;BME280;67429;51.596;-3.264;2023-11-22T07:38:44;100969.83;;;12.20;50.81
78064;BME280;67429;51.596;-3.264;2023-11-22T07:41:10;100972.52;;;12.06;51.12
78064;BME280;67429;51.596;-3.264;2023-11-22T07:43:35;100970.62;;;12.45;50.75
78064;BME280;67429;51.596;-3.264;2023-11-22T07:46:05;100972.76;;;12.92;49.92
78064;BME280;67429;51.596;-3.264;2023-11-22T07:48:27;100978.74;;;12.48;50.17
78064;BME280;67429;51.596;-3.264;2023-11-22T07:50:52;100982.23;;;13.01;49.48
78064;BME280;67429;51.596;-3.264;2023-11-22T07:53:18;100974.92;;;13.29;48.80
78064;BME280;67429;51.596;-3.264;2023-11-22T07:55:44;100970.99;;;12.55;50.20
78064;BME280;67429;51.596;-3.264;2023-11-22T07:58:09;100971.65;;;11.97;51.72
78064;BME280;67429;51.596;-3.264;2023-11-22T08:00:35;100967.29;;;11.76;51.95
78064;BME280;67429;51.596;-3.264;2023-11-22T08:03:01;100957.70;;;12.01;51.62
78064;BME280;67429;51.596;-3.264;2023-11-22T08:05:26;100968.87;;;12.82;50.27
78064;BME280;67429;51.596;-3.264;2023-11-22T08:07:52;100962.91;;;11.41;53.63
78064;BME280;67429;51.596;-3.264;2023-11-22T08:10:18;100951.20;;;12.55;50.94
78064;BME280;67429;51.596;-3.264;2023-11-22T08:12:43;100951.93;;;12.52;50.50
78064;BME280;67429;51.596;-3.264;2023-11-22T08:15:09;100953.23;;;13.14;49.82
78064;BME280;67429;51.596;-3.264;2023-11-22T08:17:35;100951.92;;;11.68;52.39
78064;BME280;67429;51.596;-3.264;2023-11-22T08:20:00;100943.34;;;11.03;54.85
78064;BME280;67429;51.596;-3.264;2023-11-22T08:22:26;100943.36;;;10.10;57.70
78064;BME280;67429;51.596;-3.264;2023-11-22T08:24:51;100947.71;;;9.45;59.50
78064;BME280;67429;51.596;-3.264;2023-11-22T08:27:17;100946.90;;;10.26;59.76
78064;BME280;67429;51.596;-3.264;2023-11-22T08:29:43;100949.20;;;9.66;62.20
78064;BME280;67429;51.596;-3.264;2023-11-22T08:32:08;100947.46;;;7.62;68.93
78064;BME280;67429;51.596;-3.264;2023-11-22T08:34:34;100938.37;;;8.23;69.24
78064;BME280;67429;51.596;-3.264;2023-11-22T08:37:00;100936.87;;;8.21;70.14
78064;BME280;67429;51.596;-3.264;2023-11-22T08:39:25;100949.44;;;9.42;66.40
78064;BME280;67429;51.596;-3.264;2023-11-22T08:41:51;100956.29;;;9.44;64.21
78064;BME280;67429;51.596;-3.264;2023-11-22T08:44:17;100949.21;;;9.26;65.40
78064;BME280;67429;51.596;-3.264;2023-11-22T08:46:43;100933.43;;;8.52;67.39
78064;BME280;67429;51.596;-3.264;2023-11-22T08:49:08;100931.04;;;8.81;67.66
78064;BME280;67429;51.596;-3.264;2023-11-22T08:51:33;100930.64;;;8.93;68.27
78064;BME280;67429;51.596;-3.264;2023-11-22T08:53:59;100927.56;;;8.76;69.28
78064;BME280;67429;51.596;-3.264;2023-11-22T08:56:25;100921.70;;;9.43;66.95
78064;BME280;67429;51.596;-3.264;2023-11-22T08:58:50;100924.24;;;8.93;69.08
78064;BME280;67429;51.596;-3.264;2023-11-22T09:01:16;100915.76;;;8.55;71.36
78064;BME280;67429;51.596;-3.264;2023-11-22T09:03:43;100931.51;;;8.26;72.78
78064;BME280;67429;51.596;-3.264;2023-11-22T09:06:08;100940.23;;;8.19;74.79
78064;BME280;67429;51.596;-3.264;2023-11-22T09:08:34;100948.08;;;7.55;77.24
78064;BME280;67429;51.596;-3.264;2023-11-22T09:10:59;100951.57;;;7.94;77.16
78064;BME280;67429;51.596;-3.264;2023-11-22T09:13:24;100944.89;;;7.90;76.14
78064;BME280;67429;51.596;-3.264;2023-11-22T09:15:50;100944.04;;;9.29;72.35
78064;BME280;67429;51.596;-3.264;2023-11-22T09:18:16;100939.62;;;7.81;76.48
78064;BME280;67429;51.596;-3.264;2023-11-22T09:20:42;100934.19;;;8.29;75.66
78064;BME280;67429;51.596;-3.264;2023-11-22T09:23:07;100926.95;;;8.57;74.59
78064;BME280;67429;51.596;-3.264;2023-11-22T09:25:32;100927.25;;;8.43;75.27
78064;BME280;67429;51.596;-3.264;2023-11-22T09:27:58;100931.24;;;8.63;73.79
78064;BME280;67429;51.596;-3.264;2023-11-22T09:30:25;100931.10;;;9.96;70.92
78064;BME280;67429;51.596;-3.264;2023-11-22T09:32:49;100928.04;;;9.93;71.30
78064;BME280;67429;51.596;-3.264;2023-11-22T09:35:15;100920.42;;;10.23;68.36
78064;BME280;67429;51.596;-3.264;2023-11-22T09:37:41;100916.00;;;10.15;68.93
78064;BME280;67429;51.596;-3.264;2023-11-22T09:40:08;100907.30;;;9.60;70.93
78064;BME280;67429;51.596;-3.264;2023-11-22T09:42:32;100903.76;;;9.29;72.30
78064;BME280;67429;51.596;-3.264;2023-11-22T09:44:57;100917.93;;;9.18;73.40
78064;BME280;67429;51.596;-3.264;2023-11-22T09:47:23;100912.60;;;8.98;74.97
78064;BME280;67429;51.596;-3.264;2023-11-22T09:49:51;100918.31;;;9.48;72.51
78064;BME280;67429;51.596;-3.264;2023-11-22T09:52:17;100911.66;;;9.35;73.33
78064;BME280;67429;51.596;-3.264;2023-11-22T09:54:40;100912.39;;;8.90;74.95
78064;BME280;67429;51.596;-3.264;2023-11-22T09:57:05;100909.12;;;9.26;77.05
78064;BME280;67429;51.596;-3.264;2023-11-22T09:59:32;100904.39;;;8.64;76.82
78064;BME280;67429;51.596;-3.264;2023-11-22T10:01:56;100899.98;;;9.75;74.42
78064;BME280;67429;51.596;-3.264;2023-11-22T10:04:22;100885.50;;;10.09;73.50
78064;BME280;67429;51.596;-3.264;2023-11-22T10:06:48;100871.46;;;9.91;73.50
78064;BME280;67429;51.596;-3.264;2023-11-22T10:09:13;100854.24;;;10.95;70.49
78064;BME280;67429;51.596;-3.264;2023-11-22T10:11:39;100860.12;;;9.98;72.44
78064;BME280;67429;51.596;-3.264;2023-11-22T10:14:05;100881.05;;;10.00;73.36
78064;BME280;67429;51.596;-3.264;2023-11-22T10:16:30;100874.04;;;10.18;71.32
78064;BME280;67429;51.596;-3.264;2023-11-22T10:18:58;100894.79;;;11.77;69.02
78064;BME280;67429;51.596;-3.264;2023-11-22T10:21:23;100919.24;;;10.33;71.62
78064;BME280;67429;51.596;-3.264;2023-11-22T10:23:47;100935.35;;;10.65;69.89
78064;BME280;67429;51.596;-3.264;2023-11-22T10:26:13;100925.18;;;10.50;71.15
78064;BME280;67429;51.596;-3.264;2023-11-22T10:28:39;100909.61;;;10.37;71.30
78064;BME280;67429;51.596;-3.264;2023-11-22T10:31:07;100910.06;;;10.69;71.93
78064;BME280;67429;51.596;-3.264;2023-11-22T10:33:30;100914.38;;;11.86;68.12
78064;BME280;67429;51.596;-3.264;2023-11-22T10:35:55;100915.07;;;11.65;68.18
78064;BME280;67429;51.596;-3.264;2023-11-22T10:38:21;100916.62;;;11.25;68.15
78064;BME280;67429;51.596;-3.264;2023-11-22T10:40:46;100919.52;;;11.97;65.81
78064;BME280;67429;51.596;-3.264;2023-11-22T10:43:12;100921.32;;;11.70;66.89
78064;BME280;67429;51.596;-3.264;2023-11-22T10:45:38;100924.10;;;11.43;67.77
78064;BME280;67429;51.596;-3.264;2023-11-22T10:48:03;100924.67;;;11.15;68.23
78064;BME280;67429;51.596;-3.264;2023-11-22T10:50:28;100929.51;;;10.45;70.20
78064;BME280;67429;51.596;-3.264;2023-11-22T10:52:56;100937.65;;;10.95;68.46
78064;BME280;67429;51.596;-3.264;2023-11-22T10:55:21;100939.01;;;10.14;71.37
78064;BME280;67429;51.596;-3.264;2023-11-22T10:57:46;100934.45;;;10.15;71.27
78064;BME280;67429;51.596;-3.264;2023-11-22T11:00:13;100929.58;;;10.14;71.20
78064;BME280;67429;51.596;-3.264;2023-11-22T11:02:41;100921.45;;;10.40;71.37
78064;BME280;67429;51.596;-3.264;2023-11-22T11:05:05;100923.61;;;10.43;71.26
78064;BME280;67429;51.596;-3.264;2023-11-22T11:07:30;100926.47;;;10.80;69.86
78064;BME280;67429;51.596;-3.264;2023-11-22T11:09:54;100920.96;;;10.94;68.38
78064;BME280;67429;51.596;-3.264;2023-11-22T11:12:19;100921.00;;;10.90;69.45
78064;BME280;67429;51.596;-3.264;2023-11-22T11:14:45;100924.09;;;10.67;69.79
78064;BME280;67429;51.596;-3.264;2023-11-22T11:17:10;100922.77;;;10.58;71.07
78064;BME280;67429;51.596;-3.264;2023-11-22T11:19:35;100925.86;;;10.76;70.77
78064;BME280;67429;51.596;-3.264;2023-11-22T11:22:01;100918.80;;;10.63;71.68
78064;BME280;67429;51.596;-3.264;2023-11-22T11:24:27;100911.30;;;10.33;71.93
78064;BME280;67429;51.596;-3.264;2023-11-22T11:26:52;100915.87;;;9.86;72.70
78064;BME280;67429;51.596;-3.264;2023-11-22T11:29:29;100919.42;;;9.53;72.71
78064;BME280;67429;51.596;-3.264;2023-11-22T11:31:45;100926.13;;;10.11;71.13
78064;BME280;67429;51.596;-3.264;2023-11-22T11:34:10;100925.26;;;9.89;73.93
78064;BME280;67429;51.596;-3.264;2023-11-22T11:36:37;100922.02;;;9.52;74.71
78064;BME280;67429;51.596;-3.264;2023-11-22T11:39:02;100921.30;;;9.17;77.47
78064;BME280;67429;51.596;-3.264;2023-11-22T11:41:27;100917.30;;;9.53;75.79
78064;BME280;67429;51.596;-3.264;2023-11-22T11:43:51;100904.56;;;10.23;73.44
78064;BME280;67429;51.596;-3.264;2023-11-22T11:46:17;100902.96;;;9.92;72.97
78064;BME280;67429;51.596;-3.264;2023-11-22T11:48:43;100894.42;;;10.76;71.74
78064;BME280;67429;51.596;-3.264;2023-11-22T11:51:08;100880.47;;;9.89;73.12
78064;BME280;67429;51.596;-3.264;2023-11-22T11:53:33;100877.55;;;10.11;72.15
78064;BME280;67429;51.596;-3.264;2023-11-22T11:56:01;100873.58;;;11.12;70.67
78064;BME280;67429;51.596;-3.264;2023-11-22T11:58:25;100867.24;;;10.81;71.01
78064;BME280;67429;51.596;-3.264;2023-11-22T12:00:51;100862.29;;;10.34;72.29
78064;BME280;67429;51.596;-3.264;2023-11-22T12:03:16;100859.75;;;10.35;72.46
78064;BME280;67429;51.596;-3.264;2023-11-22T12:05:41;100859.42;;;10.21;72.49
78064;BME280;67429;51.596;-3.264;2023-11-22T12:08:07;100861.89;;;9.85;75.05
78064;BME280;67429;51.596;-3.264;2023-11-22T12:10:33;100861.16;;;9.98;74.39
78064;BME280;67429;51.596;-3.264;2023-11-22T12:12:58;100861.11;;;9.90;74.87
78064;BME280;67429;51.596;-3.264;2023-11-22T12:15:24;100855.89;;;10.10;74.88
78064;BME280;67429;51.596;-3.264;2023-11-22T12:17:50;100860.70;;;8.79;79.30
78064;BME280;67429;51.596;-3.264;2023-11-22T12:20:16;100858.75;;;8.82;80.89
78064;BME280;67429;51.596;-3.264;2023-11-22T12:22:41;100854.71;;;9.56;77.19
78064;BME280;67429;51.596;-3.264;2023-11-22T12:25:07;100851.65;;;9.05;79.13
78064;BME280;67429;51.596;-3.264;2023-11-22T12:27:32;100844.81;;;9.19;81.13
78064;BME280;67429;51.596;-3.264;2023-11-22T12:29:57;100840.46;;;9.25;81.00
78064;BME280;67429;51.596;-3.264;2023-11-22T12:32:24;100849.50;;;9.82;78.55
78064;BME280;67429;51.596;-3.264;2023-11-22T12:34:49;100847.55;;;9.59;78.61